Coldfoot, Alaska
Current Conditions -  °F | °C
As of 8:28 PM on Friday 28 Nov 2014 (Local Time) from PAEI Reporting Station
Light Snow Light Snow  
Wind Chill:   Ceiling: 1900
Heat Index:   Visibility: 10mi
Dew Point: -2°   Wind: 0mph
Humidity: 85%   Direction: NA
Pressure: 30.17"   Gusts: NA
Location:  64.5037°N, 147.659°W
Report Text: PAEI 290528Z AUTO 00000KT 10SM -SN BKN019 M17/M19 A3017 RMK AO2 SNE0510B0512 $
Loading
Personal Weather Stations






























Interactive Weather Map New forecast layout! Learn more

10-Day Weather Forecast

Advertisements
Track Severe Weather on mobile